createdAt,value
2023-01-22T00:01:10.240Z,8.54
2023-01-22T00:03:37.441Z,8.51
2023-01-22T00:06:05.207Z,8.83
2023-01-22T00:08:32.595Z,8.87
2023-01-22T00:10:59.273Z,8.91
2023-01-22T00:13:27.021Z,8.74
2023-01-22T00:15:56.404Z,8.75
2023-01-22T00:18:25.000Z,8.76
2023-01-22T00:20:53.166Z,8.79
2023-01-22T00:23:20.516Z,9.05
2023-01-22T00:25:47.397Z,8.91
2023-01-22T00:28:14.086Z,9.28
2023-01-22T00:30:40.817Z,9.10
2023-01-22T00:33:07.711Z,8.96
2023-01-22T00:35:35.829Z,8.86
2023-01-22T00:38:02.524Z,9.16
2023-01-22T00:40:29.343Z,9.21
2023-01-22T00:42:56.133Z,9.18
2023-01-22T00:45:22.874Z,9.19
2023-01-22T00:47:49.597Z,9.29
2023-01-22T00:50:16.949Z,9.22
2023-01-22T00:52:45.211Z,9.26
2023-01-22T00:55:11.995Z,9.33
2023-01-22T00:57:38.699Z,9.39
2023-01-22T01:00:07.324Z,9.31
2023-01-22T01:02:34.063Z,9.26
2023-01-22T01:05:00.739Z,9.18
2023-01-22T01:07:27.421Z,9.10
2023-01-22T01:09:55.504Z,9.09
2023-01-22T01:12:22.179Z,9.11
2023-01-22T01:14:48.862Z,9.14
2023-01-22T01:17:15.689Z,8.81
2023-01-22T01:19:42.362Z,8.98
2023-01-22T01:22:09.045Z,9.06
2023-01-22T01:24:35.881Z,9.07
2023-01-22T01:27:04.072Z,9.12
2023-01-22T01:29:30.775Z,9.08
2023-01-22T01:31:57.707Z,9.18
2023-01-22T01:34:24.610Z,9.04
2023-01-22T01:36:51.321Z,8.88
2023-01-22T01:39:18.368Z,9.05
2023-01-22T01:41:45.094Z,9.07
2023-01-22T01:44:15.974Z,8.96
2023-01-22T01:46:47.021Z,8.54
2023-01-22T01:49:23.095Z,8.75
2023-01-22T01:51:51.200Z,8.58
2023-01-22T01:54:18.095Z,8.45
2023-01-22T01:56:49.984Z,8.69
2023-01-22T01:59:20.150Z,8.67
2023-01-22T02:01:50.385Z,8.71
2023-01-22T02:04:17.458Z,8.70
2023-01-22T02:06:44.147Z,8.81
2023-01-22T02:09:11.348Z,8.77
2023-01-22T02:11:42.896Z,8.76
2023-01-22T02:14:14.260Z,8.67
2023-01-22T02:16:42.617Z,8.77
2023-01-22T02:19:09.642Z,8.73
2023-01-22T02:21:40.060Z,8.75
2023-01-22T02:24:09.870Z,8.80
2023-01-22T02:26:37.511Z,8.80
2023-01-22T02:29:04.727Z,8.93
2023-01-22T02:31:31.595Z,8.96
2023-01-22T02:33:58.653Z,9.01
2023-01-22T02:36:25.553Z,9.09
2023-01-22T02:38:53.847Z,9.07
2023-01-22T02:41:20.683Z,9.03
2023-01-22T02:43:47.443Z,8.87
2023-01-22T02:46:14.105Z,8.77
2023-01-22T02:48:40.823Z,8.85
2023-01-22T02:51:07.600Z,8.86
2023-01-22T02:53:34.433Z,8.82
2023-01-22T02:56:06.133Z,8.76
2023-01-22T02:58:33.869Z,8.88
2023-01-22T03:01:08.438Z,8.85
2023-01-22T03:03:36.847Z,8.87
2023-01-22T03:06:03.901Z,8.85
2023-01-22T03:08:30.702Z,8.83
2023-01-22T03:10:58.629Z,8.83
2023-01-22T03:13:26.814Z,8.78
2023-01-22T03:15:53.527Z,8.84
2023-01-22T03:18:20.272Z,8.90
2023-01-22T03:20:46.962Z,8.83
2023-01-22T03:23:14.644Z,8.90
2023-01-22T03:25:41.329Z,8.96
2023-01-22T03:28:07.993Z,8.89
2023-01-22T03:30:36.068Z,9.10
2023-01-22T03:33:02.784Z,8.94
2023-01-22T03:35:30.910Z,9.17
2023-01-22T03:37:57.588Z,9.17
2023-01-22T03:40:24.352Z,9.30
2023-01-22T03:42:51.033Z,9.27
2023-01-22T03:45:17.746Z,9.10
2023-01-22T03:47:45.903Z,9.04
2023-01-22T03:50:12.659Z,8.95
2023-01-22T03:52:42.403Z,8.96
2023-01-22T03:55:10.007Z,8.90
2023-01-22T03:57:36.720Z,8.76
2023-01-22T04:00:04.048Z,8.70
2023-01-22T04:02:30.793Z,8.82
2023-01-22T04:04:59.119Z,8.55
2023-01-22T04:07:26.082Z,8.38
2023-01-22T04:09:52.906Z,8.57
2023-01-22T04:12:19.587Z,8.57
2023-01-22T04:14:46.260Z,8.54
2023-01-22T04:17:12.947Z,8.70
2023-01-22T04:19:39.690Z,8.86
2023-01-22T04:22:07.764Z,8.83
2023-01-22T04:24:34.568Z,8.73
2023-01-22T04:27:01.241Z,8.90
2023-01-22T04:29:27.974Z,8.85
2023-01-22T04:31:54.725Z,8.93
2023-01-22T04:34:21.488Z,8.92
2023-01-22T04:36:48.193Z,8.95
2023-01-22T04:39:16.327Z,9.27
2023-01-22T04:41:42.980Z,9.43
2023-01-22T04:44:09.984Z,9.80
2023-01-22T04:46:36.825Z,9.87
2023-01-22T04:49:03.516Z,9.81
2023-01-22T04:51:30.196Z,9.90
2023-01-22T04:53:56.900Z,9.68
2023-01-22T04:56:24.995Z,9.69
2023-01-22T04:58:51.683Z,9.41
2023-01-22T05:01:18.462Z,9.47
2023-01-22T05:03:45.179Z,9.24
2023-01-22T05:06:11.885Z,9.05
2023-01-22T05:08:38.603Z,9.19
2023-01-22T05:11:05.718Z,9.55
2023-01-22T05:13:33.801Z,9.51
2023-01-22T05:16:00.654Z,9.62
2023-01-22T05:18:27.380Z,9.63
2023-01-22T05:20:54.082Z,9.52
2023-01-22T05:23:20.800Z,9.71
2023-01-22T05:25:48.008Z,9.56
2023-01-22T05:28:14.684Z,9.48
2023-01-22T05:30:42.882Z,9.57
2023-01-22T05:33:11.415Z,9.61
2023-01-22T05:35:38.356Z,9.74
2023-01-22T05:38:05.143Z,9.81
2023-01-22T05:40:31.871Z,9.83
2023-01-22T05:42:58.574Z,10.01
2023-01-22T05:45:25.266Z,9.84
2023-01-22T05:47:54.011Z,9.88
2023-01-22T05:50:20.773Z,9.80
2023-01-22T05:52:47.684Z,9.53
2023-01-22T05:55:16.048Z,9.68
2023-01-22T05:57:42.751Z,9.51
2023-01-22T06:00:10.847Z,9.20
2023-01-22T06:02:37.634Z,9.04
2023-01-22T06:05:07.286Z,9.12
2023-01-22T06:07:34.915Z,9.21
2023-01-22T06:10:01.623Z,9.27
2023-01-22T06:12:28.295Z,9.22
2023-01-22T06:14:55.026Z,9.19
2023-01-22T06:17:22.121Z,9.30
2023-01-22T06:19:48.804Z,9.43
2023-01-22T06:22:17.202Z,9.35
2023-01-22T06:24:43.862Z,9.29
2023-01-22T06:27:10.544Z,9.60
2023-01-22T06:29:39.885Z,9.74
2023-01-22T06:32:06.743Z,9.79
2023-01-22T06:34:33.424Z,9.88
2023-01-22T06:37:00.303Z,9.86
2023-01-22T06:39:28.400Z,9.76
2023-01-22T06:41:55.112Z,10.11
2023-01-22T06:44:21.806Z,9.91
2023-01-22T06:46:48.923Z,10.09
2023-01-22T06:49:15.639Z,10.10
2023-01-22T06:51:42.305Z,10.06
2023-01-22T06:54:11.275Z,10.18
2023-01-22T06:56:39.443Z,10.33
2023-01-22T06:59:06.420Z,10.29
2023-01-22T07:01:35.761Z,10.58
2023-01-22T07:04:02.529Z,10.39
2023-01-22T07:06:29.291Z,10.17
2023-01-22T07:08:55.964Z,10.51
2023-01-22T07:11:22.668Z,10.49
2023-01-22T07:13:50.762Z,10.48
2023-01-22T07:16:17.505Z,10.70
2023-01-22T07:18:44.204Z,10.52
2023-01-22T07:21:12.052Z,10.26
2023-01-22T07:23:38.756Z,10.28
2023-01-22T07:26:08.604Z,10.58
2023-01-22T07:28:35.361Z,10.77
2023-01-22T07:31:03.795Z,10.62
2023-01-22T07:33:30.617Z,10.65
2023-01-22T07:35:57.727Z,10.72
2023-01-22T07:38:26.892Z,10.67
2023-01-22T07:40:53.576Z,10.59
2023-01-22T07:43:20.351Z,10.53
2023-01-22T07:45:47.021Z,10.55
2023-01-22T07:48:17.754Z,10.58
2023-01-22T07:50:47.317Z,10.65
2023-01-22T07:53:14.014Z,10.80
2023-01-22T07:55:41.390Z,10.79
2023-01-22T07:58:08.089Z,10.85
2023-01-22T08:00:35.837Z,10.83
2023-01-22T08:03:07.097Z,10.85
2023-01-22T08:05:35.355Z,10.92
2023-01-22T08:08:02.098Z,10.85
2023-01-22T08:10:28.833Z,10.84
2023-01-22T08:12:55.727Z,10.76
2023-01-22T08:15:22.596Z,10.76
2023-01-22T08:17:50.264Z,10.64
2023-01-22T08:20:17.800Z,10.49
2023-01-22T08:22:46.099Z,10.50
2023-01-22T08:25:12.936Z,10.52
2023-01-22T08:27:39.768Z,10.61
2023-01-22T08:30:08.178Z,10.56
2023-01-22T08:32:35.036Z,10.72
2023-01-22T08:35:01.771Z,10.43
2023-01-22T08:37:28.436Z,10.81
2023-01-22T08:39:56.556Z,10.91
2023-01-22T08:42:23.265Z,10.93
2023-01-22T08:44:52.941Z,10.96
2023-01-22T08:47:19.631Z,10.81
2023-01-22T08:49:46.360Z,10.77
2023-01-22T08:52:13.079Z,10.78
2023-01-22T08:54:39.789Z,10.75
2023-01-22T08:57:08.758Z,10.81
2023-01-22T08:59:35.533Z,10.74
2023-01-22T09:02:02.219Z,10.79
2023-01-22T09:04:29.231Z,10.85
2023-01-22T09:06:56.028Z,10.85
2023-01-22T09:09:24.704Z,10.84
2023-01-22T09:11:51.463Z,10.83
2023-01-22T09:14:19.743Z,10.69
2023-01-22T09:16:46.491Z,10.79
2023-01-22T09:19:13.436Z,10.67
2023-01-22T09:21:40.103Z,10.72
2023-01-22T09:24:07.707Z,10.74
2023-01-22T09:26:37.780Z,10.85
2023-01-22T09:29:05.436Z,10.84
2023-01-22T09:31:34.172Z,10.87
2023-01-22T09:34:01.215Z,10.95
2023-01-22T09:36:27.971Z,11.05
2023-01-22T09:38:54.916Z,11.06
2023-01-22T09:41:26.899Z,11.12
2023-01-22T09:43:57.568Z,11.12
2023-01-22T09:46:30.045Z,11.02
2023-01-22T09:49:03.047Z,11.13
2023-01-22T09:51:30.072Z,11.18
2023-01-22T09:54:01.013Z,11.16
2023-01-22T09:56:34.680Z,11.00
2023-01-22T09:59:03.127Z,11.12
2023-01-22T10:01:30.720Z,11.24
2023-01-22T10:04:02.512Z,11.26
2023-01-22T10:06:29.463Z,11.35
2023-01-22T10:09:04.098Z,11.32
2023-01-22T10:11:32.580Z,11.37
2023-01-22T10:14:01.918Z,11.48
2023-01-22T10:16:30.133Z,11.44
2023-01-22T10:19:03.096Z,11.57
2023-01-22T10:21:31.639Z,11.64
2023-01-22T10:23:58.769Z,11.66
2023-01-22T10:26:37.886Z,11.61
2023-01-22T10:29:08.368Z,11.77
2023-01-22T10:31:38.162Z,11.93
2023-01-22T10:34:13.391Z,11.96
2023-01-22T10:36:40.520Z,11.98
2023-01-22T10:39:11.730Z,11.91
2023-01-22T10:41:38.557Z,11.89
2023-01-22T10:44:20.298Z,12.04
2023-01-22T10:46:47.070Z,12.43
2023-01-22T10:49:18.313Z,12.65
2023-01-22T10:51:50.681Z,12.80
2023-01-22T10:54:24.989Z,12.90
2023-01-22T10:57:02.881Z,13.17
2023-01-22T10:59:31.116Z,13.41
2023-01-22T11:01:59.420Z,13.50
2023-01-22T11:04:30.666Z,13.55
2023-01-22T11:07:06.731Z,13.50
2023-01-22T11:09:39.591Z,13.45
2023-01-22T11:12:15.147Z,13.46
2023-01-22T11:14:42.970Z,13.39
2023-01-22T11:17:20.104Z,13.45
2023-01-22T11:19:56.979Z,13.29
2023-01-22T11:22:28.659Z,13.31
2023-01-22T11:24:55.345Z,13.43
2023-01-22T11:27:49.058Z,13.47
2023-01-22T11:30:48.341Z,13.69
2023-01-22T11:33:35.788Z,13.95
2023-01-22T11:36:11.647Z,14.18
2023-01-22T11:38:46.792Z,14.22
2023-01-22T11:41:31.831Z,14.17
2023-01-22T11:44:15.117Z,14.34
2023-01-22T11:47:00.451Z,14.46
2023-01-22T11:49:39.099Z,14.27
2023-01-22T11:52:20.279Z,14.19
2023-01-22T11:55:17.228Z,14.15
2023-01-22T11:57:55.516Z,14.09
2023-01-22T12:00:31.002Z,14.07
2023-01-22T12:03:22.469Z,14.07
2023-01-22T12:06:03.536Z,14.24
2023-01-22T12:08:42.842Z,14.15
2023-01-22T12:11:23.518Z,13.99
2023-01-22T12:14:14.504Z,14.00
2023-01-22T12:16:52.709Z,13.53
2023-01-22T12:19:45.641Z,13.52
2023-01-22T12:22:27.556Z,13.45
2023-01-22T12:25:01.608Z,13.58
2023-01-22T12:27:32.481Z,13.61
2023-01-22T12:30:06.875Z,13.70
2023-01-22T12:32:37.724Z,13.61
2023-01-22T12:35:11.462Z,13.47
2023-01-22T12:37:43.390Z,13.39
2023-01-22T12:41:11.832Z,13.32
2023-01-22T12:43:46.796Z,13.25
2023-01-22T12:46:23.323Z,13.06
2023-01-22T12:49:01.534Z,12.92
2023-01-22T12:51:36.203Z,12.82
2023-01-22T12:54:09.727Z,13.06
2023-01-22T12:56:36.793Z,13.11
2023-01-22T12:59:04.911Z,13.11
2023-01-22T13:01:34.627Z,13.29
2023-01-22T13:04:02.951Z,13.18
2023-01-22T13:06:34.050Z,13.29
2023-01-22T13:09:01.474Z,13.25
2023-01-22T13:11:31.315Z,13.34
2023-01-22T13:14:16.590Z,13.38
2023-01-22T13:16:52.199Z,13.29
2023-01-22T13:19:20.845Z,13.25
2023-01-22T13:21:48.961Z,13.13
2023-01-22T13:24:18.032Z,12.96
2023-01-22T13:26:52.051Z,13.03
2023-01-22T13:29:25.423Z,13.07
2023-01-22T13:31:54.984Z,12.85
2023-01-22T13:34:22.340Z,12.88
2023-01-22T13:36:50.053Z,12.89
2023-01-22T13:39:19.061Z,12.82
2023-01-22T13:41:49.107Z,12.87
2023-01-22T13:44:18.948Z,13.00
2023-01-22T13:46:48.424Z,13.15
2023-01-22T13:49:22.236Z,12.96
2023-01-22T13:51:49.715Z,12.81
2023-01-22T13:54:22.613Z,13.03
2023-01-22T13:56:49.458Z,13.11
2023-01-22T13:59:22.563Z,13.10
2023-01-22T14:01:54.459Z,13.22
2023-01-22T14:04:32.452Z,13.22
2023-01-22T14:06:59.245Z,13.05
2023-01-22T14:09:27.796Z,13.11
2023-01-22T14:11:54.458Z,13.28
2023-01-22T14:14:21.169Z,13.34
2023-01-22T14:16:48.190Z,13.45
2023-01-22T14:19:16.479Z,13.39
2023-01-22T14:21:43.217Z,13.38
2023-01-22T14:24:10.139Z,13.38
2023-01-22T14:26:37.066Z,13.41
2023-01-22T14:29:03.980Z,13.37
2023-01-22T14:31:30.638Z,13.26
2023-01-22T14:33:57.997Z,13.24
2023-01-22T14:36:26.192Z,13.16
2023-01-22T14:38:52.904Z,13.17
2023-01-22T14:41:19.582Z,13.17
2023-01-22T14:43:46.358Z,13.02
2023-01-22T14:46:13.037Z,13.07
2023-01-22T14:48:39.761Z,13.11
2023-01-22T14:51:10.276Z,13.21
2023-01-22T14:53:38.731Z,13.17
2023-01-22T14:56:06.004Z,13.16
2023-01-22T14:58:32.860Z,13.20
2023-01-22T15:00:59.614Z,13.19
2023-01-22T15:03:29.147Z,13.15
2023-01-22T15:05:55.875Z,13.08
2023-01-22T15:08:22.758Z,13.13
2023-01-22T15:10:50.843Z,13.19
2023-01-22T15:13:17.596Z,13.13
2023-01-22T15:15:44.277Z,13.20
2023-01-22T15:18:10.949Z,13.11
2023-01-22T15:20:37.835Z,13.13
2023-01-22T15:23:04.543Z,13.11
2023-01-22T15:25:31.218Z,13.15
2023-01-22T15:27:59.396Z,13.08
2023-01-22T15:30:26.180Z,13.08
2023-01-22T15:32:52.989Z,13.17
2023-01-22T15:35:19.729Z,13.20
2023-01-22T15:37:46.495Z,13.18
2023-01-22T15:40:14.464Z,13.32
2023-01-22T15:42:42.943Z,13.18
2023-01-22T15:45:11.645Z,13.18
2023-01-22T15:47:38.333Z,13.19
2023-01-22T15:50:06.343Z,13.16
2023-01-22T15:52:33.103Z,13.09
2023-01-22T15:54:59.806Z,13.08
2023-01-22T15:57:26.510Z,12.89
2023-01-22T15:59:53.163Z,12.94
2023-01-22T16:02:21.311Z,12.85
2023-01-22T16:04:48.033Z,12.80
2023-01-22T16:07:14.722Z,12.75
2023-01-22T16:09:41.486Z,12.70
2023-01-22T16:12:08.721Z,12.72
2023-01-22T16:14:35.475Z,12.63
2023-01-22T16:17:02.215Z,12.67
2023-01-22T16:19:30.351Z,12.59
2023-01-22T16:21:57.092Z,12.58
2023-01-22T16:24:23.784Z,12.61
2023-01-22T16:26:50.545Z,12.64
2023-01-22T16:29:17.219Z,12.62
2023-01-22T16:31:43.920Z,12.59
2023-01-22T16:34:12.790Z,12.63
2023-01-22T16:36:41.536Z,12.65
2023-01-22T16:39:09.717Z,12.63
2023-01-22T16:41:37.036Z,12.55
2023-01-22T16:44:07.470Z,12.53
2023-01-22T16:46:35.827Z,12.51
2023-01-22T16:49:05.501Z,12.45
2023-01-22T16:51:36.984Z,12.45
2023-01-22T16:54:06.791Z,12.46
2023-01-22T16:56:34.447Z,12.49
2023-01-22T16:59:01.345Z,12.47
2023-01-22T17:01:29.732Z,12.47
2023-01-22T17:03:56.717Z,12.39
2023-01-22T17:06:26.504Z,12.49
2023-01-22T17:08:54.028Z,12.49
2023-01-22T17:11:22.266Z,12.49
2023-01-22T17:13:49.784Z,12.56
2023-01-22T17:16:17.430Z,12.62
2023-01-22T17:18:44.184Z,12.54
2023-01-22T17:21:14.975Z,12.51
2023-01-22T17:23:41.731Z,12.51
2023-01-22T17:26:10.329Z,12.55
2023-01-22T17:28:38.842Z,12.57
2023-01-22T17:31:07.634Z,12.55
2023-01-22T17:33:34.951Z,12.62
2023-01-22T17:36:01.728Z,12.69
2023-01-22T17:38:29.033Z,12.58
2023-01-22T17:40:56.020Z,12.64
2023-01-22T17:43:22.820Z,12.56
2023-01-22T17:45:51.216Z,12.55
2023-01-22T17:48:17.938Z,12.65
2023-01-22T17:50:44.627Z,12.52
2023-01-22T17:53:11.325Z,12.59
2023-01-22T17:55:38.023Z,12.42
2023-01-22T17:58:04.699Z,12.51
2023-01-22T18:00:31.503Z,12.57
2023-01-22T18:02:59.649Z,12.56
2023-01-22T18:05:26.418Z,12.53
2023-01-22T18:07:53.123Z,12.55
2023-01-22T18:10:19.829Z,12.56
2023-01-22T18:12:46.539Z,12.52
2023-01-22T18:15:13.563Z,12.48
2023-01-22T18:17:40.254Z,12.55
2023-01-22T18:20:09.778Z,12.57
2023-01-22T18:22:36.514Z,12.56
2023-01-22T18:25:03.326Z,12.49
2023-01-22T18:27:29.986Z,12.38
2023-01-22T18:29:56.828Z,12.44
2023-01-22T18:32:23.557Z,12.42
2023-01-22T18:34:50.237Z,12.43
2023-01-22T18:37:18.385Z,12.43
2023-01-22T18:39:45.085Z,12.44
2023-01-22T18:42:11.765Z,12.46
2023-01-22T18:44:39.044Z,12.26
2023-01-22T18:47:05.717Z,12.37
2023-01-22T18:49:32.356Z,12.37
2023-01-22T18:51:59.276Z,12.33
2023-01-22T18:54:27.427Z,12.35
2023-01-22T18:56:54.096Z,12.34
2023-01-22T18:59:20.829Z,12.41
2023-01-22T19:01:47.497Z,12.26
2023-01-22T19:04:14.192Z,12.34
2023-01-22T19:06:40.874Z,12.39
2023-01-22T19:09:10.809Z,12.41
2023-01-22T19:11:40.960Z,12.44
2023-01-22T19:14:08.763Z,12.43
2023-01-22T19:16:36.913Z,12.34
2023-01-22T19:19:05.335Z,12.33
2023-01-22T19:21:32.002Z,12.39
2023-01-22T19:24:01.308Z,12.35
2023-01-22T19:26:30.175Z,12.44
2023-01-22T19:29:00.784Z,12.45
2023-01-22T19:31:29.371Z,12.43
2023-01-22T19:33:56.708Z,12.37
2023-01-22T19:36:25.042Z,12.41
2023-01-22T19:38:51.738Z,12.33
2023-01-22T19:41:18.464Z,12.35
2023-01-22T19:43:45.147Z,12.41
2023-01-22T19:46:14.523Z,12.47
2023-01-22T19:48:41.390Z,12.31
2023-01-22T19:51:10.198Z,12.44
2023-01-22T19:53:37.853Z,12.43
2023-01-22T19:56:05.380Z,12.49
2023-01-22T19:58:32.049Z,12.35
2023-01-22T20:00:58.767Z,12.36
2023-01-22T20:03:26.904Z,12.43
2023-01-22T20:05:54.374Z,12.46
2023-01-22T20:08:21.084Z,12.44
2023-01-22T20:10:48.137Z,12.45
2023-01-22T20:13:14.828Z,12.43
2023-01-22T20:15:42.351Z,12.47
2023-01-22T20:18:10.084Z,12.49
2023-01-22T20:20:38.219Z,12.56
2023-01-22T20:23:05.008Z,12.46
2023-01-22T20:25:31.764Z,12.56
2023-01-22T20:27:58.836Z,12.58
2023-01-22T20:30:25.883Z,12.61
2023-01-22T20:32:53.866Z,12.49
2023-01-22T20:35:21.491Z,12.55
2023-01-22T20:37:49.691Z,12.57
2023-01-22T20:40:16.601Z,12.54
2023-01-22T20:42:43.294Z,12.53
2023-01-22T20:45:10.489Z,12.44
2023-01-22T20:47:37.749Z,12.47
2023-01-22T20:50:05.555Z,12.55
2023-01-22T20:52:32.351Z,12.61
2023-01-22T20:55:02.145Z,12.67
2023-01-22T20:57:29.616Z,12.72
2023-01-22T20:59:56.443Z,12.63
2023-01-22T21:02:23.653Z,12.68
2023-01-22T21:04:51.175Z,12.70
2023-01-22T21:07:17.894Z,12.71
2023-01-22T21:09:46.266Z,12.68
2023-01-22T21:12:14.325Z,12.69
2023-01-22T21:14:41.568Z,12.59
2023-01-22T21:17:08.580Z,12.66
2023-01-22T21:19:35.289Z,12.67
2023-01-22T21:22:01.919Z,12.60
2023-01-22T21:24:28.616Z,12.55
2023-01-22T21:26:57.985Z,12.57
2023-01-22T21:29:26.103Z,12.64
2023-01-22T21:31:53.294Z,12.66
2023-01-22T21:34:23.028Z,12.65
2023-01-22T21:36:53.861Z,12.63
2023-01-22T21:39:22.615Z,12.69
2023-01-22T21:41:49.575Z,12.74
2023-01-22T21:44:19.241Z,12.72
2023-01-22T21:46:48.188Z,12.74
2023-01-22T21:49:17.466Z,12.81
2023-01-22T21:51:49.054Z,12.82
2023-01-22T21:54:18.016Z,12.72
2023-01-22T21:56:47.472Z,12.80
2023-01-22T21:59:14.246Z,12.87
2023-01-22T22:01:41.157Z,12.86
2023-01-22T22:04:09.939Z,12.85
2023-01-22T22:06:37.460Z,12.74
2023-01-22T22:09:06.963Z,12.65
2023-01-22T22:11:34.303Z,12.56
2023-01-22T22:14:01.170Z,12.46
2023-01-22T22:16:28.002Z,12.59
2023-01-22T22:18:55.738Z,12.66
2023-01-22T22:21:23.883Z,12.69
2023-01-22T22:23:53.447Z,12.71
2023-01-22T22:26:20.172Z,12.74
2023-01-22T22:28:46.863Z,12.79
2023-01-22T22:31:15.398Z,12.77
2023-01-22T22:33:43.543Z,12.81
2023-01-22T22:36:11.547Z,12.85
2023-01-22T22:38:39.697Z,12.82
2023-01-22T22:41:08.411Z,12.86
2023-01-22T22:43:36.171Z,12.79
2023-01-22T22:46:05.196Z,12.88
2023-01-22T22:48:32.315Z,12.94
2023-01-22T22:50:59.605Z,12.88
2023-01-22T22:53:26.278Z,12.97
2023-01-22T22:55:54.351Z,12.88
2023-01-22T22:58:21.067Z,12.90
2023-01-22T23:00:47.761Z,12.81
2023-01-22T23:03:16.150Z,12.77
2023-01-22T23:05:42.917Z,12.78
2023-01-22T23:08:09.633Z,12.83
2023-01-22T23:10:38.403Z,12.88
2023-01-22T23:13:06.517Z,12.89
2023-01-22T23:15:33.735Z,12.88
2023-01-22T23:18:00.758Z,12.87
2023-01-22T23:20:27.801Z,12.94
2023-01-22T23:22:55.076Z,12.94
2023-01-22T23:25:21.733Z,12.97
2023-01-22T23:27:48.444Z,13.00
2023-01-22T23:30:16.975Z,13.08
2023-01-22T23:32:43.772Z,13.07
2023-01-22T23:35:11.195Z,13.11
2023-01-22T23:37:37.905Z,13.13
2023-01-22T23:40:05.498Z,13.16
2023-01-22T23:42:32.423Z,13.07
2023-01-22T23:44:59.093Z,13.05
2023-01-22T23:47:27.287Z,13.06
2023-01-22T23:49:54.035Z,12.99
2023-01-22T23:52:23.710Z,12.99
2023-01-22T23:54:50.387Z,13.00
2023-01-22T23:57:17.081Z,13.04
2023-01-22T23:59:43.756Z,13.24
